createdAt,value
2019-04-05T00:00:45.729Z,14.30
2019-04-05T00:01:45.750Z,13.40
2019-04-05T00:02:45.704Z,13.50
2019-04-05T00:03:45.743Z,15.40
2019-04-05T00:04:45.690Z,14.90
2019-04-05T00:05:45.674Z,15.50
2019-04-05T00:06:45.672Z,15.10
2019-04-05T00:07:45.655Z,15.40
2019-04-05T00:08:45.662Z,15.60
2019-04-05T00:09:45.649Z,14.30
2019-04-05T00:10:45.616Z,14.30
2019-04-05T00:11:45.632Z,14.40
2019-04-05T00:12:45.605Z,15.90
2019-04-05T00:13:45.639Z,13.90
2019-04-05T00:14:45.583Z,14.30
2019-04-05T00:15:45.569Z,14.30
2019-04-05T00:16:45.617Z,13.50
2019-04-05T00:17:45.546Z,13.90
2019-04-05T00:18:45.555Z,15.50
2019-04-05T00:19:45.520Z,15.00
2019-04-05T00:20:45.560Z,13.80
2019-04-05T00:21:45.545Z,14.40
2019-04-05T00:22:45.488Z,14.20
2019-04-05T00:23:45.481Z,14.80
2019-04-05T00:24:45.611Z,13.90
2019-04-05T00:25:45.464Z,15.40
2019-04-05T00:26:45.457Z,15.80
2019-04-05T00:27:45.525Z,14.20
2019-04-05T00:28:45.424Z,15.50
2019-04-05T00:29:45.439Z,14.70
2019-04-05T00:30:45.417Z,17.10
2019-04-05T00:31:45.391Z,15.40
2019-04-05T00:32:45.392Z,15.40
2019-04-05T00:33:45.371Z,14.50
2019-04-05T00:34:45.409Z,14.60
2019-04-05T00:35:45.348Z,14.40
2019-04-05T00:36:45.339Z,15.90
2019-04-05T00:37:45.328Z,15.80
2019-04-05T00:38:45.349Z,15.10
2019-04-05T00:39:45.301Z,14.80
2019-04-05T00:40:45.311Z,14.80
2019-04-05T00:41:45.285Z,21.00
2019-04-05T00:42:45.271Z,13.50
2019-04-05T00:43:45.292Z,14.60
2019-04-05T00:44:45.269Z,16.50
2019-04-05T00:45:45.290Z,14.50
2019-04-05T00:46:45.238Z,14.70
2019-04-05T00:47:45.223Z,15.90
2019-04-05T00:48:45.229Z,14.90
2019-04-05T00:49:45.202Z,14.90
2019-04-05T00:50:45.225Z,16.50
2019-04-05T00:51:45.179Z,14.00
2019-04-05T00:52:45.163Z,16.10
2019-04-05T00:53:45.167Z,14.40
2019-04-05T00:54:45.144Z,14.20
2019-04-05T00:55:45.166Z,14.10
2019-04-05T00:56:45.127Z,13.80
2019-04-05T00:57:45.134Z,15.10
2019-04-05T00:58:45.227Z,15.40
2019-04-05T00:59:45.098Z,14.50
2019-04-05T01:00:45.088Z,14.90
2019-04-05T01:01:45.088Z,13.80
2019-04-05T01:02:45.061Z,16.20
2019-04-05T01:03:45.056Z,16.90
2019-04-05T01:04:45.039Z,16.90
2019-04-05T01:05:45.067Z,14.40
2019-04-05T01:06:45.031Z,14.80
2019-04-05T01:07:45.017Z,15.20
2019-04-05T01:08:44.992Z,16.20
2019-04-05T01:09:44.987Z,14.60
2019-04-05T01:10:44.967Z,14.80
2019-04-05T01:11:44.983Z,14.30
2019-04-05T01:12:44.963Z,14.20
2019-04-05T01:13:44.939Z,14.40
2019-04-05T01:14:44.936Z,15.30
2019-04-05T01:15:44.923Z,16.80
2019-04-05T01:16:44.924Z,14.70
2019-04-05T01:17:44.894Z,30.50
2019-04-05T01:18:44.912Z,15.50
2019-04-05T01:19:44.876Z,16.20
2019-04-05T01:20:44.870Z,15.40
2019-04-05T01:21:44.881Z,18.10
2019-04-05T01:22:44.883Z,15.20
2019-04-05T01:23:44.833Z,14.40
2019-04-05T01:24:44.831Z,16.30
2019-04-05T01:25:44.830Z,16.30
2019-04-05T01:26:44.808Z,17.20
2019-04-05T01:27:44.817Z,19.70
2019-04-05T01:28:44.777Z,17.60
2019-04-05T01:29:44.769Z,15.20
2019-04-05T01:30:44.767Z,15.20
2019-04-05T01:31:44.748Z,15.70
2019-04-05T01:32:44.745Z,16.20
2019-04-05T01:33:44.723Z,15.40
2019-04-05T01:34:44.714Z,16.30
2019-04-05T01:35:45.637Z,15.90
2019-04-05T01:36:44.689Z,18.80
2019-04-05T01:37:44.697Z,15.30
2019-04-05T01:38:44.687Z,16.50
2019-04-05T01:39:44.688Z,15.10
2019-04-05T01:40:44.654Z,16.10
2019-04-05T01:41:44.640Z,15.00
2019-04-05T01:42:44.651Z,17.20
2019-04-05T01:43:44.625Z,16.70
2019-04-05T01:44:44.611Z,14.50
2019-04-05T01:45:53.481Z,14.70
2019-04-05T01:46:45.593Z,15.50
2019-04-05T01:47:44.603Z,14.90
2019-04-05T01:48:44.560Z,15.50
2019-04-05T01:49:44.556Z,16.60
2019-04-05T01:50:44.538Z,17.70
2019-04-05T01:51:44.534Z,16.10
2019-04-05T01:52:44.518Z,14.70
2019-04-05T01:53:44.550Z,15.40
2019-04-05T01:54:44.505Z,14.90
2019-04-05T01:55:44.498Z,15.10
2019-04-05T01:56:44.474Z,16.50
2019-04-05T01:57:44.467Z,14.40
2019-04-05T01:58:44.474Z,17.40
2019-04-05T01:59:44.451Z,15.60
2019-04-05T02:00:44.431Z,17.20
2019-04-05T02:01:44.419Z,16.80
2019-04-05T02:02:44.409Z,15.40
2019-04-05T02:03:44.430Z,15.60
2019-04-05T02:04:44.393Z,16.10
2019-04-05T02:05:44.377Z,15.30
2019-04-05T02:06:44.369Z,16.10
2019-04-05T02:07:44.427Z,17.80
2019-04-05T02:08:44.367Z,15.90
2019-04-05T02:09:44.334Z,17.20
2019-04-05T02:10:44.321Z,16.30
2019-04-05T02:11:44.317Z,16.80
2019-04-05T02:12:44.299Z,15.50
2019-04-05T02:13:44.303Z,16.10
2019-04-05T02:14:44.287Z,16.30
2019-04-05T02:15:44.278Z,18.40
2019-04-05T02:16:44.259Z,17.60
2019-04-05T02:17:44.252Z,16.20
2019-04-05T02:18:44.265Z,17.80
2019-04-05T02:19:44.235Z,18.10
2019-04-05T02:20:44.223Z,16.00
2019-04-05T02:21:44.207Z,15.70
2019-04-05T02:22:44.269Z,16.50
2019-04-05T02:23:44.220Z,17.60
2019-04-05T02:24:44.175Z,15.90
2019-04-05T02:25:44.165Z,16.80
2019-04-05T02:26:44.151Z,16.40
2019-04-05T02:27:44.170Z,19.20
2019-04-05T02:28:44.169Z,18.30
2019-04-05T02:29:44.119Z,16.60
2019-04-05T02:30:44.111Z,18.10
2019-04-05T02:31:44.117Z,20.10
2019-04-05T02:32:44.092Z,15.50
2019-04-05T02:33:44.669Z,17.40
2019-04-05T02:34:44.095Z,16.90
2019-04-05T02:35:44.053Z,19.20
2019-04-05T02:36:44.044Z,17.20
2019-04-05T02:37:44.039Z,16.50
2019-04-05T02:38:44.023Z,18.60
2019-04-05T02:39:44.031Z,17.30
2019-04-05T02:40:44.002Z,16.70
2019-04-05T02:41:43.993Z,17.30
2019-04-05T02:42:44.068Z,18.40
2019-04-05T02:43:43.984Z,16.10
2019-04-05T02:44:44.092Z,17.30
2019-04-05T02:45:43.990Z,18.60
2019-04-05T02:46:43.944Z,16.10
2019-04-05T02:47:43.925Z,18.50
2019-04-05T02:48:43.925Z,17.80
2019-04-05T02:49:43.917Z,17.30
2019-04-05T02:50:43.900Z,17.90
2019-04-05T02:51:43.906Z,17.00
2019-04-05T02:52:43.876Z,16.20
2019-04-05T02:53:43.860Z,16.60
2019-04-05T02:54:43.904Z,17.10
2019-04-05T02:55:43.842Z,16.80
2019-04-05T02:56:43.839Z,17.50
2019-04-05T02:57:43.834Z,18.60
2019-04-05T02:58:43.825Z,17.70
2019-04-05T02:59:43.829Z,17.80
2019-04-05T03:00:43.796Z,16.70
2019-04-05T03:01:43.775Z,17.30
2019-04-05T03:02:43.790Z,19.10
2019-04-05T03:03:43.769Z,19.70
2019-04-05T03:04:43.779Z,18.20
2019-04-05T03:05:43.733Z,18.50
2019-04-05T03:06:43.727Z,18.00
2019-04-05T03:07:43.727Z,17.90
2019-04-05T03:08:43.729Z,17.10
2019-04-05T03:09:43.718Z,16.50
2019-04-05T03:10:43.683Z,16.30
2019-04-05T03:11:43.670Z,18.90
2019-04-05T03:12:43.667Z,17.20
2019-04-05T03:13:43.659Z,19.10
2019-04-05T03:14:43.672Z,18.50
2019-04-05T03:15:43.631Z,16.50
2019-04-05T03:16:43.623Z,18.50
2019-04-05T03:17:43.611Z,16.40
2019-04-05T03:18:43.616Z,18.00
2019-04-05T03:19:43.644Z,18.50
2019-04-05T03:20:43.590Z,18.40
2019-04-05T03:21:43.571Z,17.70
2019-04-05T03:22:43.554Z,16.90
2019-04-05T03:23:43.540Z,18.00
2019-04-05T03:24:43.538Z,17.80
2019-04-05T03:25:43.536Z,18.80
2019-04-05T03:26:43.521Z,17.60
2019-04-05T03:27:43.502Z,18.80
2019-04-05T03:28:43.491Z,19.40
2019-04-05T03:29:43.476Z,18.00
2019-04-05T03:30:43.511Z,18.90
2019-04-05T03:31:43.460Z,18.50
2019-04-05T03:32:43.459Z,17.10
2019-04-05T03:33:43.448Z,17.00
2019-04-05T03:34:43.425Z,16.70
2019-04-05T03:35:43.442Z,17.30
2019-04-05T03:36:43.432Z,19.60
2019-04-05T03:37:43.405Z,17.50
2019-04-05T03:38:43.397Z,19.90
2019-04-05T03:39:43.370Z,18.30
2019-04-05T03:40:43.385Z,18.70
2019-04-05T03:41:43.358Z,18.20
2019-04-05T03:42:43.355Z,17.70
2019-04-05T03:43:43.343Z,22.60
2019-04-05T03:44:43.312Z,17.30
2019-04-05T03:45:43.353Z,20.10
2019-04-05T03:46:56.344Z,16.70
2019-04-05T03:47:44.293Z,17.00
2019-04-05T03:48:43.276Z,17.40
2019-04-05T03:49:43.275Z,21.60
2019-04-05T03:50:45.265Z,20.10
2019-04-05T03:51:43.238Z,18.50
2019-04-05T03:52:43.233Z,21.30
2019-04-05T03:53:43.238Z,17.90
2019-04-05T03:54:43.217Z,18.10
2019-04-05T03:55:43.228Z,17.80
2019-04-05T03:56:43.187Z,18.00
2019-04-05T03:57:43.178Z,17.30
2019-04-05T03:58:43.164Z,17.70
2019-04-05T03:59:43.267Z,19.80
2019-04-05T04:00:43.175Z,17.70
2019-04-05T04:01:43.151Z,17.70
2019-04-05T04:02:43.120Z,20.00
2019-04-05T04:03:43.151Z,17.40
2019-04-05T04:04:43.103Z,18.10
2019-04-05T04:05:43.118Z,19.50
2019-04-05T04:06:43.089Z,18.50
2019-04-05T04:07:43.064Z,19.20
2019-04-05T04:08:43.062Z,17.80
2019-04-05T04:09:43.075Z,18.40
2019-04-05T04:10:43.058Z,16.80
2019-04-05T04:11:43.056Z,17.10
2019-04-05T04:12:43.029Z,17.60
2019-04-05T04:13:43.017Z,18.50
2019-04-05T04:14:43.000Z,17.50
2019-04-05T04:15:42.983Z,18.10
2019-04-05T04:16:43.000Z,17.30
2019-04-05T04:17:42.966Z,16.70
2019-04-05T04:18:42.977Z,18.00
2019-04-05T04:19:42.945Z,16.90
2019-04-05T04:20:42.935Z,18.90
2019-04-05T04:21:42.947Z,18.50
2019-04-05T04:22:42.906Z,17.40
2019-04-05T04:23:42.906Z,21.20
2019-04-05T04:24:42.908Z,18.10
2019-04-05T04:25:42.875Z,17.90
2019-04-05T04:26:42.880Z,18.30
2019-04-05T04:27:42.857Z,23.70
2019-04-05T04:28:42.842Z,17.80
2019-04-05T04:29:42.841Z,20.50
2019-04-05T04:30:42.819Z,20.80
2019-04-05T04:31:42.826Z,16.90
2019-04-05T04:32:42.852Z,18.20
2019-04-05T04:33:42.801Z,18.00
2019-04-05T04:34:42.779Z,42.30
2019-04-05T04:35:42.784Z,20.00
2019-04-05T04:36:42.786Z,18.80
2019-04-05T04:37:42.748Z,18.60
2019-04-05T04:38:42.737Z,18.20
2019-04-05T04:39:42.734Z,17.90
2019-04-05T04:40:42.716Z,18.50
2019-04-05T04:41:42.728Z,19.00
2019-04-05T04:42:42.688Z,19.20
2019-04-05T04:43:42.676Z,18.30
2019-04-05T04:44:42.672Z,18.10
2019-04-05T04:45:42.678Z,23.60
2019-04-05T04:46:42.689Z,19.10
2019-04-05T04:47:42.662Z,18.20
2019-04-05T04:48:42.626Z,19.20
2019-04-05T04:49:42.626Z,18.60
2019-04-05T04:50:42.606Z,18.10
2019-04-05T04:51:42.638Z,20.00
2019-04-05T04:52:42.602Z,20.00
2019-04-05T04:53:42.577Z,18.60
2019-04-05T04:54:42.562Z,19.50
2019-04-05T04:55:42.553Z,19.40
2019-04-05T04:56:42.585Z,22.00
2019-04-05T04:57:42.532Z,19.60
2019-04-05T04:58:42.525Z,17.40
2019-04-05T04:59:42.508Z,19.10
2019-04-05T05:00:42.505Z,19.50
2019-04-05T05:01:42.487Z,21.40
2019-04-05T05:02:42.496Z,19.70
2019-04-05T05:03:42.519Z,18.80
2019-04-05T05:04:42.471Z,19.50
2019-04-05T05:05:42.447Z,18.00
2019-04-05T05:06:42.438Z,19.00
2019-04-05T05:07:42.455Z,20.10
2019-04-05T05:08:42.432Z,19.30
2019-04-05T05:09:42.410Z,20.90
2019-04-05T05:10:42.419Z,19.00
2019-04-05T05:11:42.388Z,20.70
2019-04-05T05:12:42.395Z,19.60
2019-04-05T05:13:42.428Z,19.60
2019-04-05T05:14:42.366Z,20.40
2019-04-05T05:15:42.346Z,19.30
2019-04-05T05:16:42.344Z,19.60
2019-04-05T05:17:42.344Z,18.10
2019-04-05T05:18:42.305Z,19.00
2019-04-05T05:19:42.297Z,19.40
2019-04-05T05:20:42.823Z,21.50
2019-04-05T05:21:42.286Z,18.60
2019-04-05T05:22:42.299Z,19.90
2019-04-05T05:23:42.257Z,23.10
2019-04-05T05:24:42.240Z,19.30
2019-04-05T05:25:42.230Z,17.90
2019-04-05T05:26:42.218Z,23.10
2019-04-05T05:27:42.301Z,22.90
2019-04-05T05:28:42.202Z,21.40
2019-04-05T05:29:42.184Z,19.40
2019-04-05T05:30:42.175Z,18.70
2019-04-05T05:31:42.167Z,23.30
2019-04-05T05:32:42.171Z,20.00
2019-04-05T05:33:42.154Z,21.00
2019-04-05T05:34:42.178Z,19.90
2019-04-05T05:35:42.122Z,21.60
2019-04-05T05:36:42.112Z,21.30
2019-04-05T05:37:42.128Z,21.30
2019-04-05T05:38:42.101Z,19.50
2019-04-05T05:39:42.115Z,20.60
2019-04-05T05:40:42.078Z,20.10
2019-04-05T05:41:42.071Z,19.40
2019-04-05T05:42:42.068Z,20.20
2019-04-05T05:43:42.062Z,20.30
2019-04-05T05:44:42.029Z,19.80
2019-04-05T05:45:42.033Z,19.50
2019-04-05T05:46:42.011Z,25.40
2019-04-05T05:47:51.718Z,19.40
2019-04-05T05:48:43.242Z,19.50
2019-04-05T05:49:41.977Z,23.20
2019-04-05T05:50:41.981Z,19.80
2019-04-05T05:51:41.950Z,22.10
2019-04-05T05:52:41.942Z,21.80
2019-04-05T05:53:41.976Z,21.40
2019-04-05T05:54:41.939Z,19.60
2019-04-05T05:55:41.924Z,22.20
2019-04-05T05:56:41.920Z,19.50
2019-04-05T05:57:41.907Z,21.30
2019-04-05T05:58:41.926Z,20.40
2019-04-05T05:59:41.870Z,23.30
2019-04-05T06:00:41.865Z,22.90
2019-04-05T06:01:41.901Z,23.20
2019-04-05T06:02:41.854Z,23.80
2019-04-05T06:03:41.866Z,23.60
2019-04-05T06:04:41.817Z,22.50
2019-04-05T06:05:41.816Z,21.10
2019-04-05T06:06:41.811Z,21.70
2019-04-05T06:07:41.798Z,21.80
2019-04-05T06:08:41.800Z,20.20
2019-04-05T06:09:41.764Z,21.70
2019-04-05T06:10:41.757Z,20.90
2019-04-05T06:11:41.756Z,22.20
2019-04-05T06:12:41.752Z,20.90
2019-04-05T06:13:41.760Z,21.60
2019-04-05T06:14:41.752Z,21.60
2019-04-05T06:15:41.724Z,21.30
2019-04-05T06:16:46.652Z,24.10
2019-04-05T06:17:42.688Z,23.80
2019-04-05T06:18:41.694Z,22.40
2019-04-05T06:19:41.676Z,22.90
2019-04-05T06:20:41.658Z,23.40
2019-04-05T06:21:41.642Z,21.90
2019-04-05T06:22:41.630Z,25.50
2019-04-05T06:23:41.655Z,21.90
2019-04-05T06:24:41.620Z,22.20
2019-04-05T06:25:41.636Z,30.50
2019-04-05T06:26:41.600Z,21.70
2019-04-05T06:27:41.571Z,22.00
2019-04-05T06:28:41.933Z,23.20
2019-04-05T06:29:41.552Z,22.80
2019-04-05T06:30:41.545Z,24.90
2019-04-05T06:31:41.535Z,23.00
2019-04-05T06:32:41.514Z,23.50
2019-04-05T06:33:41.548Z,26.10
2019-04-05T06:34:41.494Z,23.80
2019-04-05T06:35:41.494Z,24.20
2019-04-05T06:36:41.479Z,23.80
2019-04-05T06:37:41.472Z,24.30
2019-04-05T06:38:41.490Z,23.60
2019-04-05T06:39:41.480Z,24.80
2019-04-05T06:40:41.468Z,24.80
2019-04-05T06:41:41.444Z,26.60
2019-04-05T06:42:41.417Z,25.50
2019-04-05T06:43:41.416Z,26.30
2019-04-05T06:44:41.388Z,33.10
2019-04-05T06:45:41.421Z,27.40
2019-04-05T06:46:41.360Z,27.40
2019-04-05T06:47:41.363Z,28.30
2019-04-05T06:48:41.389Z,27.90
2019-04-05T06:49:41.358Z,27.40
2019-04-05T06:50:41.327Z,27.80
2019-04-05T06:51:41.338Z,29.90
2019-04-05T06:52:41.307Z,28.90
2019-04-05T06:53:41.298Z,29.40
2019-04-05T06:54:41.304Z,29.20
2019-04-05T06:55:41.282Z,30.10
2019-04-05T06:56:41.257Z,30.60
2019-04-05T06:57:41.246Z,30.40
2019-04-05T06:58:41.248Z,33.00
2019-04-05T06:59:41.257Z,31.90
2019-04-05T07:00:41.228Z,32.00
2019-04-05T07:01:41.226Z,30.70
2019-04-05T07:02:41.206Z,32.80
2019-04-05T07:03:41.188Z,31.00
2019-04-05T07:04:41.202Z,31.70
2019-04-05T07:05:41.174Z,32.50
2019-04-05T07:06:41.184Z,31.90
2019-04-05T07:07:41.156Z,32.40
2019-04-05T07:08:53.027Z,35.00
2019-04-05T07:09:42.143Z,33.50
2019-04-05T07:10:41.118Z,34.00
2019-04-05T07:11:41.092Z,37.30
2019-04-05T07:12:41.098Z,35.90
2019-04-05T07:13:41.077Z,38.20
2019-04-05T07:14:41.102Z,36.30
2019-04-05T07:15:41.062Z,38.50
2019-04-05T07:16:41.063Z,39.80
2019-04-05T07:17:41.036Z,39.50
2019-04-05T07:18:41.041Z,41.60
2019-04-05T07:19:41.048Z,40.90
2019-04-05T07:20:41.002Z,43.70
2019-04-05T07:21:40.997Z,43.80
2019-04-05T07:22:41.016Z,41.80
2019-04-05T07:23:40.982Z,47.20
2019-04-05T07:24:40.983Z,46.80
2019-04-05T07:25:40.945Z,47.60
2019-04-05T07:26:40.936Z,53.20
2019-04-05T07:27:40.932Z,48.70
2019-04-05T07:28:40.913Z,50.30
2019-04-05T07:29:40.922Z,48.00
2019-04-05T07:30:40.914Z,55.10
2019-04-05T07:31:40.892Z,49.30
2019-04-05T07:32:40.870Z,52.50
2019-04-05T07:33:40.874Z,52.60
2019-04-05T07:34:40.880Z,53.60
2019-04-05T07:35:40.847Z,52.40
2019-04-05T07:36:40.832Z,52.40
2019-04-05T07:37:40.832Z,54.90
2019-04-05T07:38:40.812Z,56.60
2019-04-05T07:39:40.842Z,51.40
2019-04-05T07:40:40.787Z,55.60
2019-04-05T07:41:40.797Z,53.80
2019-04-05T07:42:40.809Z,53.50
2019-04-05T07:43:40.758Z,55.60
2019-04-05T07:44:40.901Z,55.10
2019-04-05T07:45:40.762Z,55.40
2019-04-05T07:46:40.724Z,53.90
2019-04-05T07:47:40.730Z,52.20
2019-04-05T07:48:45.223Z,55.00
2019-04-05T07:49:40.698Z,55.40
2019-04-05T07:50:40.702Z,55.90
2019-04-05T07:51:40.672Z,55.50
2019-04-05T07:52:40.664Z,52.10
2019-04-05T07:53:40.652Z,50.90
2019-04-05T07:54:40.649Z,53.00
2019-04-05T07:55:40.656Z,52.60
2019-04-05T07:56:40.630Z,49.60
2019-04-05T07:57:40.616Z,52.40
2019-04-05T07:58:40.605Z,50.80
2019-04-05T07:59:40.643Z,49.10
2019-04-05T08:00:40.608Z,50.40
2019-04-05T08:01:40.572Z,50.40
2019-04-05T08:02:40.556Z,53.40
2019-04-05T08:03:40.546Z,53.40
2019-04-05T08:04:40.543Z,51.50
2019-04-05T08:05:40.552Z,51.40
2019-04-05T08:06:40.512Z,49.50
2019-04-05T08:07:40.510Z,53.10
2019-04-05T08:08:40.510Z,53.80
2019-04-05T08:09:40.478Z,52.00
2019-04-05T08:10:40.497Z,56.50
2019-04-05T08:11:40.470Z,55.50
2019-04-05T08:12:40.441Z,54.20
2019-04-05T08:13:40.450Z,56.50
2019-04-05T08:14:40.421Z,54.50
2019-04-05T08:15:40.453Z,55.30
2019-04-05T08:16:40.411Z,55.70
2019-04-05T08:17:40.439Z,56.80
2019-04-05T08:18:40.376Z,60.80
2019-04-05T08:19:40.381Z,57.70
2019-04-05T08:20:40.393Z,58.20
2019-04-05T08:21:40.349Z,57.60
2019-04-05T08:22:40.345Z,58.60
2019-04-05T08:23:40.322Z,56.90
2019-04-05T08:24:40.319Z,58.40
2019-04-05T08:25:41.252Z,58.60
2019-04-05T08:26:40.292Z,56.30
2019-04-05T08:27:40.287Z,59.40
2019-04-05T08:28:40.283Z,56.80
2019-04-05T08:29:40.268Z,63.90
2019-04-05T08:30:40.303Z,67.30
2019-04-05T08:31:40.288Z,57.20
2019-04-05T08:32:40.226Z,56.20
2019-04-05T08:33:40.225Z,57.60
2019-04-05T08:34:40.229Z,61.60
2019-04-05T08:35:40.233Z,58.90
2019-04-05T08:36:40.204Z,60.40
2019-04-05T08:37:40.176Z,60.50
2019-04-05T08:38:40.192Z,55.40
2019-04-05T08:39:40.182Z,57.10
2019-04-05T08:40:40.221Z,55.60
2019-04-05T08:41:40.142Z,58.30
2019-04-05T08:42:40.129Z,52.60
2019-04-05T08:43:40.131Z,55.10
2019-04-05T08:44:40.598Z,59.70
2019-04-05T08:45:40.113Z,55.60
2019-04-05T08:46:40.114Z,55.40
2019-04-05T08:47:40.073Z,55.00
2019-04-05T08:48:40.070Z,56.30
2019-04-05T08:49:40.049Z,54.70
2019-04-05T08:50:40.037Z,58.60
2019-04-05T08:51:40.048Z,52.80
2019-04-05T08:52:40.041Z,55.10
2019-04-05T08:53:40.010Z,54.60
2019-04-05T08:54:40.019Z,57.30
2019-04-05T08:55:39.985Z,57.20
2019-04-05T08:56:40.026Z,55.80
2019-04-05T08:57:39.988Z,59.30
2019-04-05T08:58:39.952Z,58.00
2019-04-05T08:59:39.945Z,53.50
2019-04-05T09:00:39.929Z,57.40
2019-04-05T09:01:39.977Z,56.90
2019-04-05T09:02:39.937Z,56.50
2019-04-05T09:03:39.899Z,55.20
2019-04-05T09:04:39.888Z,52.60
2019-04-05T09:05:39.884Z,54.20
2019-04-05T09:06:39.931Z,57.50
2019-04-05T09:07:39.857Z,57.40
2019-04-05T09:08:39.851Z,55.10
2019-04-05T09:09:39.857Z,56.00
2019-04-05T09:10:39.838Z,59.50
2019-04-05T09:11:39.876Z,58.20
2019-04-05T09:12:39.808Z,58.40
2019-04-05T09:13:39.797Z,60.00
2019-04-05T09:14:39.790Z,56.40
2019-04-05T09:15:39.765Z,57.50
2019-04-05T09:16:39.795Z,57.10
2019-04-05T09:17:39.750Z,57.80
2019-04-05T09:18:39.742Z,61.30
2019-04-05T09:19:39.737Z,57.40
2019-04-05T09:20:39.729Z,49.80
2019-04-05T09:21:40.732Z,53.90
2019-04-05T09:22:39.714Z,52.70
2019-04-05T09:23:39.685Z,49.70
2019-04-05T09:24:39.685Z,54.00
2019-04-05T09:25:39.664Z,52.10
2019-04-05T09:26:39.679Z,50.80
2019-04-05T09:27:39.647Z,55.70
2019-04-05T09:28:39.637Z,53.60
2019-04-05T09:29:39.618Z,53.90
2019-04-05T09:30:39.605Z,55.80
2019-04-05T09:31:39.636Z,59.30
2019-04-05T09:32:39.588Z,55.90
2019-04-05T09:33:39.591Z,60.10
2019-04-05T09:34:39.560Z,57.40
2019-04-05T09:35:39.547Z,56.40
2019-04-05T09:36:39.594Z,59.60
2019-04-05T09:37:39.539Z,58.70
2019-04-05T09:38:39.521Z,57.90
2019-04-05T09:39:39.527Z,61.10
2019-04-05T09:40:39.522Z,61.10
2019-04-05T09:41:39.571Z,62.50
2019-04-05T09:42:39.483Z,61.10
2019-04-05T09:43:39.480Z,62.10
2019-04-05T09:44:39.465Z,59.80
2019-04-05T09:45:39.468Z,59.20
2019-04-05T09:46:46.937Z,62.60
2019-04-05T09:47:40.443Z,61.50
2019-04-05T09:48:39.421Z,64.40
2019-04-05T09:49:39.418Z,65.70
2019-04-05T09:50:39.398Z,64.40
2019-04-05T09:51:39.405Z,62.60
2019-04-05T09:52:40.176Z,62.90
2019-04-05T09:53:39.354Z,63.80
2019-04-05T09:54:39.373Z,63.50
2019-04-05T09:55:39.347Z,66.80
2019-04-05T09:56:39.381Z,69.50
2019-04-05T09:57:39.335Z,65.80
2019-04-05T09:58:39.305Z,68.00
2019-04-05T09:59:39.295Z,65.40
2019-04-05T10:00:39.293Z,69.30
2019-04-05T10:01:39.298Z,70.80
2019-04-05T10:02:39.275Z,70.60
2019-04-05T10:03:39.251Z,71.80
2019-04-05T10:04:39.241Z,67.50
2019-04-05T10:05:39.245Z,68.50
2019-04-05T10:06:39.247Z,70.40
2019-04-05T10:07:53.891Z,72.60
2019-04-05T10:08:40.202Z,70.30
2019-04-05T10:09:39.189Z,73.10
2019-04-05T10:10:39.188Z,69.00
2019-04-05T10:11:39.226Z,71.10
2019-04-05T10:12:39.165Z,70.90
2019-04-05T10:13:39.157Z,72.60
2019-04-05T10:14:39.151Z,69.40
2019-04-05T10:15:39.122Z,72.70
2019-04-05T10:16:39.139Z,71.40
2019-04-05T10:17:39.107Z,73.40
2019-04-05T10:18:39.153Z,72.60
2019-04-05T10:19:49.234Z,76.70
2019-04-05T10:20:40.066Z,75.20
2019-04-05T10:21:39.102Z,75.70
2019-04-05T10:22:39.096Z,76.40
2019-04-05T10:23:39.055Z,76.40
2019-04-05T10:25:40.105Z,73.50
2019-04-05T10:26:39.009Z,80.40
2019-04-05T10:27:39.032Z,78.00
2019-04-05T10:28:38.989Z,79.90
2019-04-05T10:29:38.979Z,78.20
2019-04-05T10:30:38.978Z,80.20
2019-04-05T10:31:39.013Z,78.90
2019-04-05T10:32:38.982Z,84.20
2019-04-05T10:33:38.938Z,79.90
2019-04-05T10:34:38.929Z,82.30
2019-04-05T10:35:38.919Z,82.10
2019-04-05T10:36:38.917Z,79.60
2019-04-05T10:37:38.946Z,86.00
2019-04-05T10:38:38.888Z,80.60
2019-04-05T10:39:38.877Z,84.60
2019-04-05T10:40:38.857Z,80.00
2019-04-05T10:41:38.854Z,82.60
2019-04-05T10:42:38.893Z,83.80
2019-04-05T10:43:38.821Z,87.10
2019-04-05T10:44:38.820Z,85.10
2019-04-05T10:45:38.884Z,82.50
2019-04-05T10:46:38.799Z,85.50
2019-04-05T10:47:38.798Z,82.30
2019-04-05T10:48:38.777Z,85.40
2019-04-05T10:49:38.763Z,79.90
2019-04-05T10:50:38.754Z,81.50
2019-04-05T10:51:38.737Z,79.40
2019-04-05T10:52:38.765Z,83.40
2019-04-05T10:53:38.734Z,79.80
2019-04-05T10:54:38.717Z,81.10
2019-04-05T10:55:38.738Z,82.00
2019-04-05T10:56:38.678Z,82.80
2019-04-05T10:57:38.671Z,74.10
2019-04-05T10:58:38.683Z,78.70
2019-04-05T10:59:38.673Z,73.40
2019-04-05T11:00:38.651Z,69.10
2019-04-05T11:01:38.627Z,73.70
2019-04-05T11:02:38.625Z,73.40
2019-04-05T11:03:38.639Z,66.60
2019-04-05T11:04:38.601Z,73.00
2019-04-05T11:05:38.609Z,67.10
2019-04-05T11:06:38.575Z,71.00
2019-04-05T11:07:38.566Z,63.30
2019-04-05T11:08:38.585Z,64.50
2019-04-05T11:09:38.557Z,61.00
2019-04-05T11:10:38.550Z,60.70
2019-04-05T11:11:38.557Z,58.10
2019-04-05T11:12:38.526Z,55.40
2019-04-05T11:13:38.531Z,57.60
2019-04-05T11:14:38.500Z,60.40
2019-04-05T11:15:38.494Z,59.80
2019-04-05T11:16:38.509Z,54.30
2019-04-05T11:17:38.465Z,58.50
2019-04-05T11:18:38.519Z,55.50
2019-04-05T11:19:38.447Z,54.90
2019-04-05T11:20:38.422Z,57.90
2019-04-05T11:21:38.422Z,57.20
2019-04-05T11:22:38.433Z,56.40
2019-04-05T11:23:38.425Z,59.10
2019-04-05T11:24:38.405Z,54.90
2019-04-05T11:25:38.405Z,54.30
2019-04-05T11:26:38.383Z,54.10
2019-04-05T11:27:38.391Z,56.30
2019-04-05T11:29:39.407Z,68.20
2019-04-05T11:30:38.320Z,55.80
2019-04-05T11:31:38.309Z,55.00
2019-04-05T11:32:38.305Z,55.60
2019-04-05T11:33:38.333Z,51.10
2019-04-05T11:34:38.296Z,54.20
2019-04-05T11:35:38.308Z,54.00
2019-04-05T11:36:38.252Z,53.40
2019-04-05T11:37:39.633Z,54.20
2019-04-05T11:38:38.309Z,48.50
2019-04-05T11:39:38.239Z,47.30
2019-04-05T11:40:38.236Z,48.80
2019-04-05T11:41:38.204Z,46.70
2019-04-05T11:42:38.206Z,47.20
2019-04-05T11:43:38.206Z,46.10
2019-04-05T11:44:38.192Z,46.50
2019-04-05T11:45:38.169Z,48.80
2019-04-05T11:46:38.166Z,45.20
2019-04-05T11:47:38.145Z,49.50
2019-04-05T11:48:41.099Z,47.80
2019-04-05T11:49:38.126Z,47.40
2019-04-05T11:50:38.110Z,48.00
2019-04-05T11:51:38.108Z,48.30
2019-04-05T11:52:38.085Z,47.20
2019-04-05T11:53:38.126Z,51.10
2019-04-05T11:54:38.059Z,45.80
2019-04-05T11:55:38.064Z,50.60
2019-04-05T11:57:41.071Z,48.40
2019-04-05T11:58:38.127Z,47.20
2019-04-05T11:59:38.008Z,51.90
2019-04-05T12:00:38.002Z,46.10
2019-04-05T12:01:37.992Z,45.30
2019-04-05T12:02:37.998Z,46.90
2019-04-05T12:03:38.008Z,47.60
2019-04-05T12:04:37.984Z,44.70
2019-04-05T12:05:37.946Z,44.70
2019-04-05T12:06:37.935Z,44.40
2019-04-05T12:07:37.920Z,44.20
2019-04-05T12:08:37.992Z,45.10
2019-04-05T12:09:37.926Z,44.10
2019-04-05T12:10:38.060Z,45.70
2019-04-05T12:11:37.896Z,45.60
2019-04-05T12:12:37.887Z,45.00
2019-04-05T12:13:37.940Z,45.70
2019-04-05T12:14:37.869Z,48.00
2019-04-05T12:15:37.863Z,44.40
2019-04-05T12:16:37.822Z,49.30
2019-04-05T12:17:37.956Z,46.10
2019-04-05T12:18:37.858Z,44.30
2019-04-05T12:19:38.197Z,44.80
2019-04-05T12:20:47.948Z,44.70
2019-04-05T12:21:38.772Z,45.40
2019-04-05T12:22:37.776Z,46.50
2019-04-05T12:23:37.780Z,49.00
2019-04-05T12:24:37.739Z,48.60
2019-04-05T12:25:37.746Z,49.30
2019-04-05T12:26:37.736Z,48.10
2019-04-05T12:27:37.718Z,47.60
2019-04-05T12:28:37.746Z,44.00
2019-04-05T12:29:37.698Z,45.60
2019-04-05T12:30:38.275Z,44.50
2019-04-05T12:31:37.694Z,44.60
2019-04-05T12:32:41.262Z,46.30
2019-04-05T12:33:37.642Z,47.10
2019-04-05T12:34:37.667Z,46.40
2019-04-05T12:35:37.844Z,46.50
2019-04-05T12:36:37.645Z,46.70
2019-04-05T12:37:49.460Z,49.50
2019-04-05T12:38:38.591Z,45.90
2019-04-05T12:39:37.618Z,46.50
2019-04-05T12:40:38.437Z,45.80
2019-04-05T12:41:40.404Z,46.80
2019-04-05T12:42:37.558Z,45.20
2019-04-05T12:43:37.562Z,46.30
2019-04-05T12:44:37.611Z,45.80
2019-04-05T12:45:37.550Z,43.90
2019-04-05T12:46:37.501Z,44.90
2019-04-05T12:47:37.496Z,45.20
2019-04-05T12:48:37.552Z,46.40
2019-04-05T12:49:39.012Z,47.00
2019-04-05T12:50:37.462Z,48.70
2019-04-05T12:51:37.457Z,48.00
2019-04-05T12:52:37.504Z,50.60
2019-04-05T12:53:37.452Z,48.50
2019-04-05T12:54:37.490Z,47.50
2019-04-05T12:55:37.429Z,46.80